Terminal Aerodrome Forecast
Issued by NWS

Home | Current Version | Previous Version | Text Only | Print | Product List | Glossary On
Versions: 1 2 3 4 5 6 7 8 9 10 11 12 13 14
000
FTUS46 KMTR 032345
TAFSTS
TAF
KSTS 032345Z 0400/0424 19007KT P6SM FEW012 BKN150
     FM040500 VRB03KT P6SM BKN012
     FM040900 VRB02KT P6SM OVC009
     FM041900 19008KT P6SM FEW020 BKN100=

USA.gov is the U.S. government's official web portal to all federal, state and local government web resources and services.